Time;durP1;ratioP1;P1;durP2;ratioP2;P2;SDS_P1;SDS_P2;PMS_P1;PMS_P2;Temp;Humidity;BMP_temperature;BMP_pressure;BME280_temperature;BME280_humidity;BME280_pressure;Samples;Min_cycle;Max_cycle;Signal;HPM_P1;HPM_P2
2023/07/07 00:00:37;;;;;;;12.27;5.70;;;;;;;;;;5047203;28;20033;-74
2023/07/07 00:03:04;;;;;;;12.07;5.90;;;;;;;;;;5044288;28;20422;-73
2023/07/07 00:05:30;;;;;;;13.20;5.63;;;;;;;;;;5034444;28;20026;-73
2023/07/07 00:07:57;;;;;;;12.35;5.80;;;;;;;;;;5032243;28;20403;-73
2023/07/07 00:10:23;;;;;;;11.50;5.18;;;;;;;;;;5032343;28;20043;-73
2023/07/07 00:12:51;;;;;;;10.25;6.03;;;;;;;;;;5030863;28;20026;-74
2023/07/07 00:15:17;;;;;;;11.18;6.07;;;;;;;;;;5032645;28;20394;-75
2023/07/07 00:17:47;;;;;;;9.80;5.78;;;;;;;;;;5032598;28;20033;-75
2023/07/07 00:20:14;;;;;;;11.98;6.07;;;;;;;;;;5032981;28;20108;-74
2023/07/07 00:22:40;;;;;;;11.43;6.03;;;;;;;;;;5032605;28;20045;-74
2023/07/07 00:25:07;;;;;;;16.95;6.28;;;;;;;;;;5032788;28;20082;-74
2023/07/07 00:27:33;;;;;;;9.93;5.80;;;;;;;;;;5032904;28;20025;-74
2023/07/07 00:29:59;;;;;;;13.10;6.20;;;;;;;;;;5032975;28;20037;-74
2023/07/07 00:32:25;;;;;;;14.05;6.20;;;;;;;;;;5032546;28;20025;-74
2023/07/07 00:34:51;;;;;;;10.93;6.00;;;;;;;;;;5032811;28;20067;-74
2023/07/07 00:37:17;;;;;;;10.60;6.63;;;;;;;;;;5033028;28;20115;-74
2023/07/07 00:39:43;;;;;;;11.45;6.82;;;;;;;;;;5032626;28;20033;-74
2023/07/07 00:42:10;;;;;;;13.10;6.65;;;;;;;;;;5032082;28;20033;-74
2023/07/07 00:44:55;;;;;;;13.90;6.57;;;;;;;;;;5032640;28;20060;-73
2023/07/07 00:47:21;;;;;;;11.80;6.18;;;;;;;;;;5032585;28;20698;-74
2023/07/07 00:49:47;;;;;;;15.00;6.53;;;;;;;;;;5032631;28;20076;-73
2023/07/07 00:52:13;;;;;;;10.95;6.18;;;;;;;;;;5032050;28;20116;-73
2023/07/07 00:54:39;;;;;;;11.18;6.47;;;;;;;;;;5032521;28;20031;-72
2023/07/07 00:57:05;;;;;;;14.52;6.68;;;;;;;;;;5033253;28;20029;-72
2023/07/07 00:59:36;;;;;;;13.20;6.55;;;;;;;;;;5032984;28;20048;-74
2023/07/07 01:02:06;;;;;;;13.93;6.63;;;;;;;;;;5032431;28;20041;-73
2023/07/07 01:04:33;;;;;;;14.57;6.32;;;;;;;;;;5032789;28;20479;-73
2023/07/07 01:07:21;;;;;;;14.93;6.75;;;;;;;;;;5032039;28;20032;-73
2023/07/07 01:09:47;;;;;;;12.70;6.85;;;;;;;;;;5032090;28;20025;-72
2023/07/07 01:12:13;;;;;;;15.55;6.78;;;;;;;;;;5031742;28;20022;-72
2023/07/07 01:14:40;;;;;;;15.07;6.60;;;;;;;;;;5031998;28;20117;-73
2023/07/07 01:17:28;;;;;;;12.68;6.00;;;;;;;;;;5031838;28;20049;-73
2023/07/07 01:20:07;;;;;;;12.40;6.10;;;;;;;;;;5031878;28;20442;-73
2023/07/07 01:22:33;;;;;;;13.40;6.13;;;;;;;;;;5031611;28;20025;-74
2023/07/07 01:25:18;;;;;;;10.95;6.22;;;;;;;;;;5031852;28;20037;-74
2023/07/07 01:28:02;;;;;;;14.23;6.03;;;;;;;;;;5030890;28;20029;-74
2023/07/07 01:30:47;;;;;;;8.52;5.85;;;;;;;;;;5031704;28;20029;-74
2023/07/07 01:33:15;;;;;;;12.07;5.78;;;;;;;;;;5031536;28;20033;-74
2023/07/07 01:35:42;;;;;;;7.80;5.03;;;;;;;;;;5031856;28;20057;-74
2023/07/07 01:38:27;;;;;;;11.15;5.47;;;;;;;;;;5031778;28;20029;-73
2023/07/07 01:40:57;;;;;;;7.65;4.82;;;;;;;;;;5031857;28;20032;-74
2023/07/07 01:43:30;;;;;;;12.20;5.75;;;;;;;;;;5031556;28;20394;-74
2023/07/07 01:46:03;;;;;;;12.05;5.72;;;;;;;;;;5031559;28;20032;-73
2023/07/07 01:48:35;;;;;;;9.07;5.43;;;;;;;;;;5031685;28;20114;-72
2023/07/07 01:51:02;;;;;;;13.45;5.75;;;;;;;;;;5031518;28;20032;-73
2023/07/07 01:53:29;;;;;;;10.45;5.95;;;;;;;;;;5031432;28;20538;-73
2023/07/07 01:55:57;;;;;;;13.48;5.90;;;;;;;;;;5031352;28;20028;-73
2023/07/07 01:58:24;;;;;;;9.18;5.47;;;;;;;;;;5031672;28;20032;-73
2023/07/07 02:00:51;;;;;;;12.00;5.15;;;;;;;;;;5031641;28;20026;-72
2023/07/07 02:03:19;;;;;;;10.77;5.13;;;;;;;;;;5031832;28;20029;-72
2023/07/07 02:05:46;;;;;;;11.73;4.63;;;;;;;;;;5030408;28;20022;-73
2023/07/07 02:08:12;;;;;;;9.85;5.05;;;;;;;;;;5031937;28;20026;-74
2023/07/07 02:10:38;;;;;;;8.85;5.18;;;;;;;;;;5031757;28;20018;-74
2023/07/07 02:13:04;;;;;;;12.30;5.53;;;;;;;;;;5031629;28;20510;-74
2023/07/07 02:15:29;;;;;;;12.85;5.55;;;;;;;;;;5031614;28;20100;-74
2023/07/07 02:17:56;;;;;;;11.85;5.15;;;;;;;;;;5031672;28;20029;-74
2023/07/07 02:20:22;;;;;;;12.15;4.82;;;;;;;;;;5031916;28;20029;-74
2023/07/07 02:22:48;;;;;;;11.65;4.30;;;;;;;;;;5031911;28;20026;-74
2023/07/07 02:25:14;;;;;;;10.10;4.75;;;;;;;;;;5031780;28;20434;-74
2023/07/07 02:27:40;;;;;;;10.98;4.95;;;;;;;;;;5031159;28;20017;-74
2023/07/07 02:30:07;;;;;;;12.73;4.78;;;;;;;;;;5031189;28;20503;-73
2023/07/07 02:32:33;;;;;;;9.60;4.57;;;;;;;;;;5031208;28;20071;-74
2023/07/07 02:35:01;;;;;;;12.00;4.70;;;;;;;;;;5031232;28;20037;-73
2023/07/07 02:37:27;;;;;;;7.68;4.55;;;;;;;;;;5031302;28;20036;-72
2023/07/07 02:39:54;;;;;;;11.57;4.90;;;;;;;;;;5032255;28;20026;-73
2023/07/07 02:42:20;;;;;;;9.48;5.18;;;;;;;;;;5051637;28;20079;-73
2023/07/07 02:44:46;;;;;;;13.68;4.93;;;;;;;;;;5018356;28;20033;-73
2023/07/07 02:47:12;;;;;;;16.23;4.88;;;;;;;;;;5016029;28;20017;-72
2023/07/07 02:49:38;;;;;;;7.25;4.47;;;;;;;;;;5015847;28;20513;-73
2023/07/07 02:52:05;;;;;;;9.57;5.07;;;;;;;;;;5015442;28;20029;-73
2023/07/07 02:54:31;;;;;;;9.50;5.28;;;;;;;;;;5015661;28;20033;-73
2023/07/07 02:56:57;;;;;;;7.47;4.25;;;;;;;;;;5015991;28;20542;-72
2023/07/07 02:59:23;;;;;;;7.95;4.05;;;;;;;;;;5015488;28;20037;-72
2023/07/07 03:01:49;;;;;;;10.65;4.93;;;;;;;;;;5014798;28;20026;-72
2023/07/07 03:04:15;;;;;;;9.70;4.47;;;;;;;;;;5015257;28;20111;-73
2023/07/07 03:06:41;;;;;;;13.35;4.72;;;;;;;;;;5015294;28;20478;-73
2023/07/07 03:09:07;;;;;;;10.80;4.82;;;;;;;;;;5015227;28;20026;-72
2023/07/07 03:11:33;;;;;;;11.52;4.68;;;;;;;;;;5014715;28;20387;-73
2023/07/07 03:13:59;;;;;;;10.40;4.10;;;;;;;;;;5014816;28;20034;-73
2023/07/07 03:16:30;;;;;;;8.93;4.15;;;;;;;;;;5015108;28;20033;-73
2023/07/07 03:18:58;;;;;;;8.38;4.13;;;;;;;;;;5015503;28;20022;-73
2023/07/07 03:21:24;;;;;;;11.32;4.55;;;;;;;;;;5016064;28;20030;-73
2023/07/07 03:23:51;;;;;;;7.18;4.93;;;;;;;;;;5016312;28;20106;-74
2023/07/07 03:26:18;;;;;;;9.35;5.18;;;;;;;;;;5015237;28;20117;-73
2023/07/07 03:28:44;;;;;;;16.83;8.18;;;;;;;;;;5014710;28;20097;-73
2023/07/07 03:31:15;;;;;;;12.18;5.30;;;;;;;;;;5014295;28;20026;-72
2023/07/07 03:33:42;;;;;;;9.68;4.38;;;;;;;;;;5015779;28;20399;-72
2023/07/07 03:36:10;;;;;;;8.55;4.63;;;;;;;;;;5014726;28;20029;-72
2023/07/07 03:38:36;;;;;;;12.57;4.30;;;;;;;;;;5014649;28;20133;-71
2023/07/07 03:41:02;;;;;;;5.53;4.05;;;;;;;;;;5014460;28;20037;-72
2023/07/07 03:43:31;;;;;;;11.23;4.65;;;;;;;;;;5013695;28;20553;-71
2023/07/07 03:45:57;;;;;;;8.50;4.20;;;;;;;;;;5012767;28;20401;-72
2023/07/07 03:48:23;;;;;;;10.52;4.72;;;;;;;;;;5013985;28;20060;-72
2023/07/07 03:50:59;;;;;;;9.95;4.35;;;;;;;;;;5012713;28;20026;-72
2023/07/07 03:53:26;;;;;;;9.90;4.95;;;;;;;;;;5013666;28;20026;-72
2023/07/07 03:55:52;;;;;;;9.02;4.65;;;;;;;;;;5014210;28;20105;-74
2023/07/07 03:58:19;;;;;;;9.57;5.00;;;;;;;;;;5014259;28;20033;-73
2023/07/07 04:00:48;;;;;;;12.75;6.65;;;;;;;;;;5013718;28;20033;-74
2023/07/07 04:03:15;;;;;;;11.38;6.50;;;;;;;;;;5013511;28;20033;-73
2023/07/07 04:05:45;;;;;;;12.05;7.05;;;;;;;;;;5013599;28;20080;-73
2023/07/07 04:08:11;;;;;;;17.48;6.57;;;;;;;;;;5013548;28;20022;-73
2023/07/07 04:10:38;;;;;;;12.80;6.30;;;;;;;;;;5013373;28;20125;-75
2023/07/07 04:13:04;;;;;;;15.40;6.43;;;;;;;;;;5013137;28;20037;-74
2023/07/07 04:15:30;;;;;;;17.60;7.22;;;;;;;;;;5013393;28;20022;-75
2023/07/07 04:17:56;;;;;;;12.68;6.88;;;;;;;;;;5013357;28;20480;-74
2023/07/07 04:20:22;;;;;;;15.90;6.90;;;;;;;;;;5013331;28;20069;-74
2023/07/07 04:22:48;;;;;;;14.20;7.55;;;;;;;;;;5012823;28;20489;-74
2023/07/07 04:25:15;;;;;;;14.30;7.00;;;;;;;;;;5013256;28;20029;-74
2023/07/07 04:27:41;;;;;;;12.50;6.95;;;;;;;;;;5013419;28;20044;-75
2023/07/07 04:30:08;;;;;;;13.45;7.05;;;;;;;;;;5013105;28;20038;-73
2023/07/07 04:32:34;;;;;;;10.82;5.78;;;;;;;;;;5013211;28;20061;-74
2023/07/07 04:35:01;;;;;;;12.30;7.32;;;;;;;;;;5014840;28;20034;-73
2023/07/07 04:37:27;;;;;;;9.73;5.50;;;;;;;;;;5013648;28;20167;-73
2023/07/07 04:39:54;;;;;;;12.23;6.57;;;;;;;;;;5012907;28;20041;-72
2023/07/07 04:42:20;;;;;;;20.13;7.80;;;;;;;;;;5012512;28;20022;-72
2023/07/07 04:44:46;;;;;;;17.48;7.95;;;;;;;;;;5012860;28;20145;-73
2023/07/07 04:47:12;;;;;;;16.48;7.45;;;;;;;;;;5013823;28;20488;-73
2023/07/07 04:49:39;;;;;;;16.83;6.80;;;;;;;;;;5014984;28;20100;-75
2023/07/07 04:52:05;;;;;;;11.18;6.18;;;;;;;;;;5013757;28;20395;-75
2023/07/07 04:54:31;;;;;;;9.98;5.45;;;;;;;;;;5014291;28;20033;-74
2023/07/07 04:56:57;;;;;;;11.68;5.68;;;;;;;;;;5013770;28;20062;-72
2023/07/07 04:59:23;;;;;;;14.10;6.85;;;;;;;;;;5013178;28;20450;-75
2023/07/07 05:01:49;;;;;;;15.13;7.32;;;;;;;;;;5012602;28;20030;-72
2023/07/07 05:04:15;;;;;;;9.75;5.18;;;;;;;;;;5012943;28;20030;-74
2023/07/07 05:06:41;;;;;;;11.95;4.68;;;;;;;;;;5012995;28;20105;-75
2023/07/07 05:09:08;;;;;;;10.48;5.38;;;;;;;;;;5012871;28;20030;-74
2023/07/07 05:11:35;;;;;;;9.98;4.68;;;;;;;;;;5012841;28;20022;-76
2023/07/07 05:14:01;;;;;;;7.35;4.50;;;;;;;;;;5013147;28;20034;-73
2023/07/07 05:16:32;;;;;;;8.10;4.32;;;;;;;;;;5014235;28;20066;-75
2023/07/07 05:18:58;;;;;;;9.55;4.50;;;;;;;;;;5040066;28;20048;-73
2023/07/07 05:21:25;;;;;;;10.05;5.10;;;;;;;;;;5041612;28;20042;-74
2023/07/07 05:23:54;;;;;;;9.80;5.25;;;;;;;;;;5043365;28;20033;-75
2023/07/07 05:26:21;;;;;;;15.85;4.97;;;;;;;;;;5031968;28;20109;-75
2023/07/07 05:28:47;;;;;;;12.60;5.07;;;;;;;;;;5034964;28;20028;-73
2023/07/07 05:31:13;;;;;;;14.15;5.28;;;;;;;;;;5042829;28;20119;-73
2023/07/07 05:33:40;;;;;;;9.02;4.47;;;;;;;;;;5026976;28;20223;-73
2023/07/07 05:36:08;;;;;;;9.35;4.85;;;;;;;;;;5038256;28;20029;-74
2023/07/07 05:38:34;;;;;;;9.40;4.25;;;;;;;;;;5046368;28;20100;-73
2023/07/07 05:41:00;;;;;;;6.82;4.13;;;;;;;;;;5040789;28;20069;-73
2023/07/07 05:43:27;;;;;;;14.90;4.90;;;;;;;;;;5028153;28;20060;-74
2023/07/07 05:46:02;;;;;;;10.27;4.40;;;;;;;;;;5032331;28;20049;-73
2023/07/07 05:48:28;;;;;;;12.52;4.18;;;;;;;;;;5039486;28;20425;-74
2023/07/07 05:50:56;;;;;;;12.98;4.53;;;;;;;;;;5024408;28;20060;-75
2023/07/07 05:53:22;;;;;;;13.25;4.72;;;;;;;;;;5031653;28;20034;-74
2023/07/07 05:55:48;;;;;;;16.35;4.38;;;;;;;;;;5040153;28;20025;-75
2023/07/07 05:58:15;;;;;;;10.65;4.55;;;;;;;;;;5038512;28;20065;-75
2023/07/07 06:00:41;;;;;;;11.07;4.80;;;;;;;;;;5041921;28;20120;-71
2023/07/07 06:03:07;;;;;;;14.35;5.25;;;;;;;;;;5029637;28;20025;-75
2023/07/07 06:05:33;;;;;;;15.73;4.93;;;;;;;;;;5039748;28;20029;-73
2023/07/07 06:08:00;;;;;;;9.68;4.47;;;;;;;;;;5024272;28;20029;-77
2023/07/07 06:10:26;;;;;;;11.18;4.45;;;;;;;;;;5036445;28;20402;-73
2023/07/07 06:12:53;;;;;;;10.18;4.60;;;;;;;;;;5041974;28;20029;-72
2023/07/07 06:15:19;;;;;;;17.65;5.10;;;;;;;;;;5043813;28;20028;-72
2023/07/07 06:17:45;;;;;;;11.60;4.15;;;;;;;;;;5054679;28;20025;-78
2023/07/07 06:20:11;;;;;;;9.25;3.78;;;;;;;;;;5055123;28;20108;-73
2023/07/07 06:22:37;;;;;;;17.52;4.95;;;;;;;;;;5055316;28;20057;-74
2023/07/07 06:25:04;;;;;;;13.32;4.57;;;;;;;;;;5055355;28;20130;-73
2023/07/07 06:27:30;;;;;;;15.93;4.47;;;;;;;;;;5055427;28;20025;-74
2023/07/07 06:29:56;;;;;;;10.88;3.83;;;;;;;;;;5055859;28;20033;-74
2023/07/07 06:32:22;;;;;;;9.18;4.50;;;;;;;;;;5055014;28;20075;-74
2023/07/07 06:34:48;;;;;;;9.88;4.10;;;;;;;;;;5055119;28;20033;-73
2023/07/07 06:37:14;;;;;;;9.45;4.03;;;;;;;;;;5055107;28;20025;-73
2023/07/07 06:39:40;;;;;;;12.20;3.40;;;;;;;;;;5055469;28;20071;-73
2023/07/07 06:42:06;;;;;;;15.70;4.32;;;;;;;;;;5054910;28;20021;-72
2023/07/07 06:44:32;;;;;;;11.52;3.47;;;;;;;;;;5055750;28;20063;-74
2023/07/07 06:46:59;;;;;;;9.55;3.63;;;;;;;;;;5055086;28;20048;-75
2023/07/07 06:49:25;;;;;;;11.75;3.72;;;;;;;;;;5055485;28;20021;-73
2023/07/07 06:51:51;;;;;;;8.07;3.60;;;;;;;;;;5053898;28;20391;-73
2023/07/07 06:54:16;;;;;;;11.80;3.60;;;;;;;;;;5052912;28;20033;-74
2023/07/07 06:56:42;;;;;;;12.93;3.72;;;;;;;;;;5053691;28;20087;-74
2023/07/07 06:59:09;;;;;;;9.95;3.40;;;;;;;;;;5053403;28;20040;-76
2023/07/07 07:01:35;;;;;;;10.82;3.42;;;;;;;;;;5053111;28;20029;-74
2023/07/07 07:04:01;;;;;;;11.20;3.90;;;;;;;;;;5053017;28;20035;-74
2023/07/07 07:06:28;;;;;;;10.82;3.33;;;;;;;;;;5054164;28;20013;-76
2023/07/07 07:08:54;;;;;;;10.27;3.58;;;;;;;;;;5054505;28;20116;-73
2023/07/07 07:11:20;;;;;;;8.80;3.20;;;;;;;;;;5054165;28;20053;-74
2023/07/07 07:13:47;;;;;;;11.68;3.47;;;;;;;;;;5052727;28;20036;-75
2023/07/07 07:16:13;;;;;;;8.68;3.35;;;;;;;;;;5053278;28;20178;-73
2023/07/07 07:18:39;;;;;;;16.48;3.55;;;;;;;;;;5053829;28;20023;-73
2023/07/07 07:21:05;;;;;;;7.75;2.92;;;;;;;;;;5053477;28;20028;-77
2023/07/07 07:23:31;;;;;;;9.68;3.13;;;;;;;;;;5051920;28;20539;-74
2023/07/07 07:25:57;;;;;;;9.18;3.25;;;;;;;;;;5054022;28;20060;-73
2023/07/07 07:28:23;;;;;;;12.85;3.53;;;;;;;;;;5053663;28;20025;-74
2023/07/07 07:30:49;;;;;;;8.32;2.70;;;;;;;;;;5054420;28;20029;-74
2023/07/07 07:33:21;;;;;;;10.15;2.85;;;;;;;;;;5052819;28;20100;-74
2023/07/07 07:35:47;;;;;;;12.50;2.97;;;;;;;;;;5054492;28;20107;-73
2023/07/07 07:38:17;;;;;;;10.88;3.42;;;;;;;;;;5053509;28;20124;-74
2023/07/07 07:40:43;;;;;;;13.68;4.22;;;;;;;;;;5052626;28;20029;-73
2023/07/07 07:43:09;;;;;;;6.38;3.30;;;;;;;;;;5051858;28;20474;-73
2023/07/07 07:45:36;;;;;;;17.13;5.35;;;;;;;;;;5052222;28;20024;-73
2023/07/07 07:48:02;;;;;;;14.50;4.70;;;;;;;;;;5037573;28;20025;-74
2023/07/07 07:50:29;;;;;;;15.18;4.55;;;;;;;;;;5032792;28;20021;-75
2023/07/07 07:52:55;;;;;;;11.23;4.00;;;;;;;;;;5031592;28;20053;-74
2023/07/07 07:55:21;;;;;;;7.97;3.30;;;;;;;;;;5032055;28;20030;-75
2023/07/07 07:57:47;;;;;;;14.65;5.40;;;;;;;;;;5020842;28;20040;-73
2023/07/07 08:00:13;;;;;;;11.30;3.95;;;;;;;;;;5023269;28;20033;-73
2023/07/07 08:02:40;;;;;;;12.18;3.95;;;;;;;;;;5032913;28;20480;-72
2023/07/07 08:05:06;;;;;;;15.02;5.38;;;;;;;;;;5033258;28;20021;-73
2023/07/07 08:07:32;;;;;;;7.55;3.15;;;;;;;;;;5032104;28;20104;-73
2023/07/07 08:09:58;;;;;;;12.18;3.28;;;;;;;;;;5031988;28;20083;-72
2023/07/07 08:12:24;;;;;;;11.75;3.10;;;;;;;;;;5031655;28;20067;-73
2023/07/07 08:14:50;;;;;;;8.82;3.03;;;;;;;;;;5031752;28;20475;-73
2023/07/07 08:17:17;;;;;;;11.32;4.40;;;;;;;;;;5029651;28;20475;-72
2023/07/07 08:19:43;;;;;;;7.82;2.72;;;;;;;;;;5029544;28;20082;-74
2023/07/07 08:22:28;;;;;;;9.52;3.42;;;;;;;;;;5030986;28;20096;-74
2023/07/07 08:24:55;;;;;;;10.52;2.92;;;;;;;;;;5031131;28;20080;-73
2023/07/07 08:27:22;;;;;;;50.17;24.08;;;;;;;;;;5031223;28;20025;-74
2023/07/07 08:29:48;;;;;;;8.82;3.40;;;;;;;;;;5026443;28;20486;-77
2023/07/07 08:32:17;;;;;;;11.75;3.47;;;;;;;;;;5030462;28;20352;-74
2023/07/07 08:34:43;;;;;;;7.65;2.67;;;;;;;;;;5029297;28;20049;-75
2023/07/07 08:37:10;;;;;;;10.43;2.70;;;;;;;;;;5030637;28;20146;-74
2023/07/07 08:39:36;;;;;;;9.13;3.05;;;;;;;;;;5024328;28;20058;-72
2023/07/07 08:42:31;;;;;;;8.27;2.70;;;;;;;;;;5030115;28;20087;-72
2023/07/07 08:44:59;;;;;;;9.57;3.22;;;;;;;;;;5019452;28;20052;-73
2023/07/07 08:47:35;;;;;;;10.38;3.13;;;;;;;;;;5030929;28;20389;-76
2023/07/07 08:50:10;;;;;;;9.85;3.42;;;;;;;;;;5032986;28;20029;-74
2023/07/07 08:52:40;;;;;;;7.43;2.80;;;;;;;;;;5032904;28;20569;-74
2023/07/07 08:55:24;;;;;;;10.73;3.22;;;;;;;;;;5033562;28;20028;-73
2023/07/07 08:57:50;;;;;;;;;;;;;;;;;;5013347;28;20361;-73
2023/07/07 09:00:17;;;;;;;6.93;2.80;;;;;;;;;;5011866;28;19916;-74
2023/07/07 09:03:02;;;;;;;10.93;3.33;;;;;;;;;;5012861;28;20014;-73
2023/07/07 09:05:46;;;;;;;11.65;2.80;;;;;;;;;;5012926;28;20096;-74
2023/07/07 09:08:17;;;;;;;10.10;3.23;;;;;;;;;;5024915;28;20458;-73
2023/07/07 09:10:46;;;;;;;6.60;2.70;;;;;;;;;;5032209;28;20148;-74
2023/07/07 09:13:12;;;;;;;9.50;2.72;;;;;;;;;;5031896;28;20056;-73
2023/07/07 09:15:39;;;;;;;8.45;2.80;;;;;;;;;;5034218;28;20037;-74
2023/07/07 09:18:23;;;;;;;5.95;2.38;;;;;;;;;;5033219;28;20045;-73
2023/07/07 09:20:56;;;;;;;7.20;2.53;;;;;;;;;;5031925;28;20475;-73
2023/07/07 09:23:24;;;;;;;9.35;2.42;;;;;;;;;;5031723;28;20053;-73
2023/07/07 09:25:58;;;;;;;7.68;2.55;;;;;;;;;;5032282;28;20491;-74
2023/07/07 09:28:27;;;;;;;7.87;2.50;;;;;;;;;;5032393;28;20033;-73
2023/07/07 09:30:58;;;;;;;8.73;2.75;;;;;;;;;;5031984;28;20109;-72
2023/07/07 09:33:24;;;;;;;6.70;2.67;;;;;;;;;;5031910;28;20026;-73
2023/07/07 09:35:53;;;;;;;7.18;2.70;;;;;;;;;;5031940;28;20544;-73
2023/07/07 09:38:19;;;;;;;9.88;2.97;;;;;;;;;;5032018;28;20021;-72
2023/07/07 09:41:04;;;;;;;4.18;2.30;;;;;;;;;;5031813;28;20026;-74
2023/07/07 09:43:50;;;;;;;4.75;2.58;;;;;;;;;;5031988;28;20117;-73
2023/07/07 09:46:19;;;;;;;6.22;2.75;;;;;;;;;;5021355;28;20045;-74
2023/07/07 09:48:54;;;;;;;6.60;2.85;;;;;;;;;;5031844;28;20231;-74
2023/07/07 09:51:33;;;;;;;15.27;3.70;;;;;;;;;;5033160;28;20033;-73
2023/07/07 09:53:59;;;;;;;8.65;2.88;;;;;;;;;;5033032;28;20025;-74
2023/07/07 09:56:30;;;;;;;7.75;2.70;;;;;;;;;;5031659;28;20105;-74
2023/07/07 09:59:04;;;;;;;7.88;3.05;;;;;;;;;;5032904;28;20488;-74
2023/07/07 10:01:34;;;;;;;9.57;2.75;;;;;;;;;;5033007;28;20025;-74
2023/07/07 10:04:01;;;;;;;12.13;3.28;;;;;;;;;;5032897;28;20026;-74
2023/07/07 10:06:32;;;;;;;6.75;2.83;;;;;;;;;;5033667;28;20038;-73
2023/07/07 10:08:59;;;;;;;8.35;2.70;;;;;;;;;;5032654;28;20021;-74
2023/07/07 10:11:30;;;;;;;7.43;2.45;;;;;;;;;;5031342;28;20510;-74
2023/07/07 10:13:56;;;;;;;6.22;2.47;;;;;;;;;;5031470;28;20033;-73
2023/07/07 10:16:45;;;;;;;4.75;2.40;;;;;;;;;;5031721;28;20053;-73
2023/07/07 10:19:16;;;;;;;11.52;2.97;;;;;;;;;;5023973;28;20051;-73
2023/07/07 10:21:43;;;;;;;6.85;2.80;;;;;;;;;;5034552;28;20053;-74
2023/07/07 10:24:12;;;;;;;7.40;2.28;;;;;;;;;;5033809;28;20034;-73
2023/07/07 10:26:41;;;;;;;14.00;3.08;;;;;;;;;;5033712;28;20095;-74
2023/07/07 10:29:10;;;;;;;8.85;2.65;;;;;;;;;;5032539;28;20047;-74
2023/07/07 10:31:40;;;;;;;12.50;3.03;;;;;;;;;;5032620;28;20512;-74
2023/07/07 10:34:17;;;;;;;9.48;2.70;;;;;;;;;;5031615;28;20030;-73
2023/07/07 10:36:43;;;;;;;7.57;2.60;;;;;;;;;;5031389;28;20112;-73
2023/07/07 10:39:09;;;;;;;5.00;2.40;;;;;;;;;;5031059;28;20033;-74
2023/07/07 10:41:35;;;;;;;6.68;2.28;;;;;;;;;;5031085;28;20026;-74
2023/07/07 10:44:01;;;;;;;6.15;2.40;;;;;;;;;;5030864;28;20767;-73
2023/07/07 10:46:27;;;;;;;5.78;2.42;;;;;;;;;;5031285;28;20171;-74
2023/07/07 10:48:55;;;;;;;6.68;2.47;;;;;;;;;;5031592;28;20036;-74
2023/07/07 10:51:33;;;;;;;6.82;2.75;;;;;;;;;;5030869;28;20040;-75
2023/07/07 10:54:14;;;;;;;6.88;2.30;;;;;;;;;;5030923;28;20113;-75
2023/07/07 10:56:43;;;;;;;13.20;2.85;;;;;;;;;;5031074;28;20035;-73
2023/07/07 10:59:12;;;;;;;10.77;2.65;;;;;;;;;;5031151;28;20033;-73
2023/07/07 11:01:51;;;;;;;5.80;2.55;;;;;;;;;;5034508;28;20453;-74
2023/07/07 11:04:23;;;;;;;9.90;2.60;;;;;;;;;;5035794;28;20088;-73
2023/07/07 11:07:05;;;;;;;6.10;2.72;;;;;;;;;;5036023;28;20022;-74
2023/07/07 11:09:50;;;;;;;8.23;5.13;;;;;;;;;;5036857;28;20048;-74
2023/07/07 11:12:16;;;;;;;;;;;;;;;;;;5035769;28;20036;-73
2023/07/07 11:14:42;;;;;;;6.22;2.40;;;;;;;;;;5034687;28;19976;-73
2023/07/07 11:17:08;;;;;;;10.75;2.80;;;;;;;;;;5034320;28;20028;-73
2023/07/07 11:19:53;;;;;;;7.28;2.67;;;;;;;;;;5034540;28;20100;-73
2023/07/07 11:22:18;;;;;;;;;;;;;;;;;;5034517;28;20029;-73
2023/07/07 11:24:52;;;;;;;5.78;2.60;;;;;;;;;;5034226;28;20435;-73
2023/07/07 11:27:37;;;;;;;9.95;2.60;;;;;;;;;;5034413;28;20040;-73
2023/07/07 11:30:10;;;;;;;7.15;3.10;;;;;;;;;;5034427;28;20053;-74
2023/07/07 11:32:37;;;;;;;7.63;3.20;;;;;;;;;;5033532;28;20013;-74
2023/07/07 11:35:22;;;;;;;6.90;2.60;;;;;;;;;;5034195;28;20474;-72
2023/07/07 11:37:56;;;;;;;6.65;2.70;;;;;;;;;;5033107;28;20333;-73
2023/07/07 11:40:22;;;;;;;6.18;3.50;;;;;;;;;;5034585;28;20053;-74
2023/07/07 11:42:56;;;;;;;6.32;2.70;;;;;;;;;;5033816;28;20099;-74
2023/07/07 11:45:41;;;;;;;12.00;2.70;;;;;;;;;;5034606;28;20102;-73
2023/07/07 11:48:07;;;;;;;6.57;2.47;;;;;;;;;;5034490;28;20029;-75
2023/07/07 11:50:32;;;;;;;9.45;3.03;;;;;;;;;;5034060;28;20387;-74
2023/07/07 11:52:58;;;;;;;6.68;2.85;;;;;;;;;;5033730;28;20087;-75
2023/07/07 11:55:43;;;;;;;6.07;2.70;;;;;;;;;;5034605;28;20026;-75
2023/07/07 11:58:28;;;;;;;6.93;3.15;;;;;;;;;;5033576;28;20064;-75
2023/07/07 12:00:58;;;;;;;5.38;3.00;;;;;;;;;;5033508;28;20021;-74
2023/07/07 12:03:28;;;;;;;5.60;2.70;;;;;;;;;;5033389;28;20030;-73
2023/07/07 12:05:54;;;;;;;9.43;3.28;;;;;;;;;;5033265;28;20104;-73
2023/07/07 12:08:22;;;;;;;10.40;3.15;;;;;;;;;;5033572;28;20025;-73
2023/07/07 12:10:51;;;;;;;9.43;2.97;;;;;;;;;;5032526;28;20479;-74
2023/07/07 12:13:23;;;;;;;5.25;2.50;;;;;;;;;;5033293;28;20028;-74
2023/07/07 12:15:51;;;;;;;7.30;2.72;;;;;;;;;;5035560;28;20029;-74
2023/07/07 12:18:17;;;;;;;8.23;2.72;;;;;;;;;;5033381;28;20064;-74
2023/07/07 12:20:48;;;;;;;10.63;2.63;;;;;;;;;;5033960;28;20030;-74
2023/07/07 12:23:17;;;;;;;5.15;2.53;;;;;;;;;;5033482;28;20026;-73
2023/07/07 12:25:43;;;;;;;7.95;2.67;;;;;;;;;;5034275;28;20026;-74
2023/07/07 12:28:10;;;;;;;5.18;2.45;;;;;;;;;;5038092;28;20021;-74
2023/07/07 12:30:44;;;;;;;6.43;2.75;;;;;;;;;;5051567;28;20033;-73
2023/07/07 12:33:10;;;;;;;5.72;2.88;;;;;;;;;;5054401;28;20029;-72
2023/07/07 12:35:46;;;;;;;4.32;2.63;;;;;;;;;;5053273;28;20040;-74
2023/07/07 12:38:34;;;;;;;7.65;2.80;;;;;;;;;;5033650;28;20021;-73
2023/07/07 12:41:04;;;;;;;6.53;2.88;;;;;;;;;;5033122;28;20031;-73
2023/07/07 12:43:32;;;;;;;6.45;2.40;;;;;;;;;;5032984;28;20104;-73
2023/07/07 12:45:58;;;;;;;3.88;2.35;;;;;;;;;;5033006;28;20032;-75
2023/07/07 12:48:28;;;;;;;7.50;2.80;;;;;;;;;;5033317;28;20037;-74
2023/07/07 12:51:03;;;;;;;8.40;2.55;;;;;;;;;;5033112;28;20030;-75
2023/07/07 12:53:32;;;;;;;7.35;2.65;;;;;;;;;;5032801;28;20340;-73
2023/07/07 12:56:07;;;;;;;9.00;3.42;;;;;;;;;;5033564;28;20037;-75
2023/07/07 12:58:56;;;;;;;7.35;3.63;;;;;;;;;;5034161;28;20120;-74
2023/07/07 13:01:23;;;;;;;5.80;2.80;;;;;;;;;;5025533;28;20092;-73
2023/07/07 13:04:02;;;;;;;6.78;2.53;;;;;;;;;;5032368;28;20112;-73
2023/07/07 13:06:31;;;;;;;7.53;3.10;;;;;;;;;;5032937;28;20033;-74
2023/07/07 13:09:24;;;;;;;6.38;2.90;;;;;;;;;;5032553;28;20033;-74
2023/07/07 13:11:54;;;;;;;5.88;3.05;;;;;;;;;;5029379;28;20038;-74
2023/07/07 13:14:27;;;;;;;12.60;3.10;;;;;;;;;;5033197;28;20053;-73
2023/07/07 13:16:54;;;;;;;5.55;2.70;;;;;;;;;;5033707;28;20100;-74
2023/07/07 13:19:20;;;;;;;6.50;2.90;;;;;;;;;;5034735;28;20627;-73
2023/07/07 13:21:46;;;;;;;4.35;2.47;;;;;;;;;;5035477;28;20025;-73
2023/07/07 13:24:17;;;;;;;8.18;2.95;;;;;;;;;;5034700;28;20388;-73
2023/07/07 13:26:43;;;;;;;4.40;2.42;;;;;;;;;;5032984;28;20021;-73
2023/07/07 13:29:09;;;;;;;4.57;2.63;;;;;;;;;;5033191;28;20021;-74
2023/07/07 13:31:39;;;;;;;6.78;3.20;;;;;;;;;;5032634;28;20490;-74
2023/07/07 13:34:06;;;;;;;8.10;3.60;;;;;;;;;;5033428;28;20083;-73
2023/07/07 13:36:32;;;;;;;6.43;3.08;;;;;;;;;;5032941;28;20017;-75
2023/07/07 13:38:58;;;;;;;5.65;2.80;;;;;;;;;;5032183;28;20112;-74
2023/07/07 13:41:25;;;;;;;10.73;3.17;;;;;;;;;;5031796;28;20530;-74
2023/07/07 13:43:55;;;;;;;7.28;3.40;;;;;;;;;;5031195;28;20108;-75
2023/07/07 13:46:29;;;;;;;6.88;2.88;;;;;;;;;;5032541;28;20025;-75
2023/07/07 13:48:55;;;;;;;8.65;2.60;;;;;;;;;;5032806;28;20356;-73
2023/07/07 13:51:27;;;;;;;6.72;2.60;;;;;;;;;;5032416;28;20024;-73
2023/07/07 13:53:54;;;;;;;7.10;3.30;;;;;;;;;;5032200;28;20029;-73
2023/07/07 13:56:20;;;;;;;7.78;3.08;;;;;;;;;;5033239;28;20032;-72
2023/07/07 13:58:48;;;;;;;6.00;3.17;;;;;;;;;;5032532;28;20033;-74
2023/07/07 14:01:20;;;;;;;7.75;3.10;;;;;;;;;;5033258;28;20091;-75
2023/07/07 14:03:47;;;;;;;8.10;3.17;;;;;;;;;;5031672;28;20040;-75
2023/07/07 14:06:15;;;;;;;4.70;2.80;;;;;;;;;;5032677;28;20084;-72
2023/07/07 14:08:41;;;;;;;11.63;2.97;;;;;;;;;;5031597;28;20036;-72
2023/07/07 14:11:14;;;;;;;7.40;3.10;;;;;;;;;;5031829;28;20412;-73
2023/07/07 14:13:40;;;;;;;6.82;3.72;;;;;;;;;;5031233;28;20410;-74
2023/07/07 14:16:08;;;;;;;8.52;3.28;;;;;;;;;;5031613;28;20136;-74
2023/07/07 14:18:37;;;;;;;5.78;3.28;;;;;;;;;;5031121;28;20025;-74
2023/07/07 14:21:04;;;;;;;7.70;3.35;;;;;;;;;;5030950;28;20618;-74
2023/07/07 14:23:31;;;;;;;8.05;3.17;;;;;;;;;;5030665;28;20032;-74
2023/07/07 14:25:57;;;;;;;5.15;2.97;;;;;;;;;;5030974;28;20021;-73
2023/07/07 14:28:30;;;;;;;8.77;3.40;;;;;;;;;;5031054;28;20076;-74
2023/07/07 14:30:58;;;;;;;6.28;3.30;;;;;;;;;;5031338;28;20032;-74
2023/07/07 14:33:27;;;;;;;5.22;3.55;;;;;;;;;;5032226;28;20022;-75
2023/07/07 14:35:55;;;;;;;10.07;3.10;;;;;;;;;;5033345;28;20026;-73
2023/07/07 14:38:26;;;;;;;7.20;3.60;;;;;;;;;;5036594;28;20028;-73
2023/07/07 14:40:55;;;;;;;7.70;3.28;;;;;;;;;;5035680;28;20032;-74
2023/07/07 14:43:22;;;;;;;6.93;3.30;;;;;;;;;;5035221;28;20068;-73
2023/07/07 14:45:49;;;;;;;6.63;3.35;;;;;;;;;;5035821;28;20033;-73
2023/07/07 14:48:18;;;;;;;7.45;3.65;;;;;;;;;;5035478;28;20064;-73